Time;durP1;ratioP1;P1;durP2;ratioP2;P2;SDS_P1;SDS_P2;PMS_P1;PMS_P2;Temp;Humidity;BMP_temperature;BMP_pressure;BME280_temperature;BME280_humidity;BME280_pressure;Samples;Min_cycle;Max_cycle;Signal;HPM_P1;HPM_P2
2022/07/27 00:01:56;;;;;;;28.10;26.70;;;21.30;61.90;;;;;;4971278;28;20554;-70
2022/07/27 00:04:23;;;;;;;29.77;28.03;;;21.30;62.10;;;;;;4970933;28;20479;-70
2022/07/27 00:06:50;;;;;;;28.77;26.93;;;21.30;62.10;;;;;;4972302;28;20460;-70
2022/07/27 00:09:18;;;;;;;28.47;27.17;;;21.30;62.30;;;;;;4969070;28;20562;-71
2022/07/27 00:11:46;;;;;;;29.80;28.30;;;21.30;62.30;;;;;;4971410;28;20973;-71
2022/07/27 00:14:14;;;;;;;28.50;27.00;;;21.30;62.30;;;;;;4971138;28;20827;-70
2022/07/27 00:16:40;;;;;;;29.57;28.00;;;21.40;62.10;;;;;;4969023;28;21076;-70
2022/07/27 00:19:08;;;;;;;30.30;28.37;;;21.30;62.20;;;;;;4972795;28;20566;-70
2022/07/27 00:21:35;;;;;;;29.90;28.40;;;21.30;62.30;;;;;;4971821;28;20461;-68
2022/07/27 00:24:02;;;;;;;28.57;27.00;;;21.30;62.30;;;;;;4972319;28;20888;-68
2022/07/27 00:26:29;;;;;;;28.20;26.90;;;21.30;62.40;;;;;;4969787;28;20563;-68
2022/07/27 00:28:57;;;;;;;27.70;26.20;;;21.40;62.30;;;;;;4971180;28;20610;-68
2022/07/27 00:31:24;;;;;;;27.10;25.80;;;21.40;62.30;;;;;;4975515;28;20550;-68
2022/07/27 00:33:51;;;;;;;27.80;26.60;;;21.40;62.30;;;;;;4970603;28;20842;-68
2022/07/27 00:36:18;;;;;;;29.60;28.30;;;21.50;62.40;;;;;;4974364;28;20571;-68
2022/07/27 00:38:44;;;;;;;28.77;27.30;;;21.50;62.40;;;;;;4970894;28;20481;-68
2022/07/27 00:41:11;;;;;;;27.60;26.27;;;21.50;62.40;;;;;;4978644;28;20459;-68
2022/07/27 00:43:54;;;;;;;28.23;26.93;;;21.50;62.40;;;;;;4968868;28;20553;-68
2022/07/27 00:46:23;;;;;;;30.40;29.00;;;21.60;62.30;;;;;;4967159;28;20489;-68
2022/07/27 00:48:50;;;;;;;28.67;27.30;;;21.50;62.40;;;;;;4971564;28;20583;-68
2022/07/27 00:51:19;;;;;;;28.90;27.60;;;21.50;62.60;;;;;;4973622;28;20472;-67
2022/07/27 00:53:47;;;;;;;28.23;26.93;;;21.60;62.40;;;;;;4969208;28;20566;-69
2022/07/27 00:56:15;;;;;;;31.00;29.00;;;21.60;61.90;;;;;;4968967;28;20514;-68
2022/07/27 00:58:45;;;;;;;29.80;28.50;;;21.60;61.80;;;;;;4968242;28;20478;-68
2022/07/27 01:01:12;;;;;;;28.53;27.23;;;21.50;62.30;;;;;;4972550;28;20470;-70
2022/07/27 01:03:40;;;;;;;28.80;27.50;;;21.40;62.60;;;;;;4969080;28;20451;-70
2022/07/27 01:06:07;;;;;;;29.80;28.40;;;21.20;63.30;;;;;;4972166;28;20465;-72
2022/07/27 01:08:35;;;;;;;29.30;28.00;;;21.10;63.80;;;;;;4969232;28;20465;-70
2022/07/27 01:11:02;;;;;;;29.73;28.33;;;21.00;64.00;;;;;;4971838;28;21023;-70
2022/07/27 01:13:30;;;;;;;29.93;28.63;;;20.90;64.30;;;;;;4968507;28;20478;-70
2022/07/27 01:15:58;;;;;;;30.97;29.47;;;20.90;64.50;;;;;;4968768;28;20459;-69
2022/07/27 01:18:30;;;;;;;31.17;29.77;;;20.90;64.40;;;;;;4969640;28;20841;-70
2022/07/27 01:21:00;;;;;;;30.17;28.67;;;21.00;64.40;;;;;;4967346;28;20734;-70
2022/07/27 01:23:31;;;;;;;28.47;27.17;;;21.00;64.10;;;;;;4969287;28;20524;-70
2022/07/27 01:25:58;;;;;;;29.97;28.57;;;21.10;64.10;;;;;;4975024;28;20484;-70
2022/07/27 01:28:25;;;;;;;30.80;29.17;;;21.10;63.60;;;;;;4970182;28;20570;-70
2022/07/27 01:30:52;;;;;;;30.93;29.60;;;21.00;63.70;;;;;;4973953;28;20491;-70
2022/07/27 01:33:24;;;;;;;31.20;29.80;;;21.00;63.90;;;;;;4967374;28;20486;-70
2022/07/27 01:35:53;;;;;;;32.07;30.40;;;21.00;63.80;;;;;;4969095;28;20602;-70
2022/07/27 01:38:20;;;;;;;30.17;28.67;;;21.00;63.90;;;;;;4971984;28;21017;-73
2022/07/27 01:40:49;;;;;;;30.57;28.90;;;20.70;64.50;;;;;;4972807;28;20952;-70
2022/07/27 01:43:16;;;;;;;30.43;28.87;;;20.80;64.50;;;;;;4971391;28;20473;-70
2022/07/27 01:45:43;;;;;;;30.20;28.73;;;20.80;64.70;;;;;;4971039;28;20547;-70
2022/07/27 01:48:10;;;;;;;31.73;30.10;;;20.80;64.60;;;;;;4969200;28;20499;-70
2022/07/27 01:50:38;;;;;;;30.70;29.20;;;20.70;64.80;;;;;;4969105;28;20488;-70
2022/07/27 01:53:05;;;;;;;30.70;29.20;;;20.70;64.90;;;;;;4964772;28;20567;-70
2022/07/27 01:55:33;;;;;;;28.83;27.33;;;20.80;64.90;;;;;;4967636;28;20520;-70
2022/07/27 01:58:04;;;;;;;30.20;28.80;;;20.80;65.00;;;;;;4968582;28;20538;-69
2022/07/27 02:00:31;;;;;;;31.63;29.93;;;20.80;64.80;;;;;;4968703;28;20762;-70
2022/07/27 02:02:58;;;;;;;29.83;28.43;;;20.80;64.70;;;;;;4968414;28;21048;-70
2022/07/27 02:05:25;;;;;;;31.27;29.90;;;20.80;64.90;;;;;;4970277;28;20571;-70
2022/07/27 02:07:52;;;;;;;34.67;32.97;;;20.70;65.10;;;;;;4972934;28;20545;-72
2022/07/27 02:10:19;;;;;;;35.93;34.13;;;20.70;65.20;;;;;;4966758;28;20883;-70
2022/07/27 02:12:45;;;;;;;35.73;34.03;;;20.70;65.20;;;;;;4968882;28;20802;-70
2022/07/27 02:15:18;;;;;;;34.00;32.33;;;20.60;65.70;;;;;;4966854;28;20510;-70
2022/07/27 02:17:45;;;;;;;33.37;31.97;;;20.60;65.60;;;;;;4957265;28;20961;-70
2022/07/27 02:20:14;;;;;;;42.00;40.10;;;20.60;65.40;;;;;;4966867;28;20606;-70
2022/07/27 02:22:41;;;;;;;33.67;31.97;;;20.60;65.50;;;;;;4969098;28;20508;-70
2022/07/27 02:25:10;;;;;;;33.73;32.23;;;20.60;65.70;;;;;;4969238;28;20460;-70
2022/07/27 02:27:37;;;;;;;44.13;41.67;;;20.50;65.90;;;;;;4976556;28;20509;-71
2022/07/27 02:30:05;;;;;;;36.23;34.53;;;20.50;65.80;;;;;;4966440;28;20569;-70
2022/07/27 02:32:33;;;;;;;42.37;40.33;;;20.50;66.10;;;;;;4967725;28;20458;-68
2022/07/27 02:35:00;;;;;;;38.37;36.63;;;20.50;66.00;;;;;;4967199;28;20553;-68
2022/07/27 02:37:27;;;;;;;33.43;31.70;;;20.50;66.00;;;;;;4969206;28;20549;-68
2022/07/27 02:39:55;;;;;;;41.73;39.50;;;20.50;65.90;;;;;;4968049;28;20474;-68
2022/07/27 02:42:21;;;;;;;32.60;31.10;;;20.50;66.00;;;;;;4965741;28;20967;-68
2022/07/27 02:44:48;;;;;;;32.17;30.57;;;20.00;67.10;;;;;;4968372;28;20961;-68
2022/07/27 02:47:15;;;;;;;36.03;34.37;;;19.80;67.90;;;;;;4970498;28;20477;-68
2022/07/27 02:49:44;;;;;;;36.90;35.20;;;19.70;68.30;;;;;;4968485;28;20573;-68
2022/07/27 02:52:10;;;;;;;33.17;31.47;;;19.70;68.40;;;;;;4970241;28;20580;-70
2022/07/27 02:54:37;;;;;;;34.40;32.90;;;19.80;68.20;;;;;;4964542;28;20562;-70
2022/07/27 02:57:04;;;;;;;33.70;32.10;;;19.80;68.20;;;;;;4964983;28;20636;-70
2022/07/27 02:59:32;;;;;;;32.70;31.20;;;19.90;68.30;;;;;;4968277;28;20994;-68
2022/07/27 03:01:58;;;;;;;33.47;32.07;;;19.90;68.00;;;;;;4967240;28;20469;-68
2022/07/27 03:04:26;;;;;;;32.07;30.57;;;19.90;68.20;;;;;;4963928;28;20948;-70
2022/07/27 03:06:54;;;;;;;38.03;36.23;;;19.90;68.00;;;;;;4967510;28;20534;-70
2022/07/27 03:09:21;;;;;;;32.17;30.33;;;19.90;68.10;;;;;;4971913;28;20572;-70
2022/07/27 03:11:48;;;;;;;32.57;31.07;;;19.90;68.30;;;;;;4970463;28;20913;-70
2022/07/27 03:14:15;;;;;;;39.57;37.77;;;19.90;68.40;;;;;;4967733;28;20486;-70
2022/07/27 03:16:42;;;;;;;50.67;47.77;;;19.80;68.60;;;;;;4960644;28;20564;-70
2022/07/27 03:19:09;;;;;;;35.50;33.90;;;19.80;68.70;;;;;;4968073;28;20562;-70
2022/07/27 03:21:35;;;;;;;34.60;32.87;;;19.70;68.90;;;;;;4970029;28;20551;-70
2022/07/27 03:24:04;;;;;;;35.73;34.13;;;19.70;69.10;;;;;;4967650;28;20935;-70
2022/07/27 03:26:32;;;;;;;38.73;37.03;;;19.70;69.20;;;;;;4964082;28;20834;-70
2022/07/27 03:28:59;;;;;;;33.40;32.00;;;19.70;69.20;;;;;;4971270;28;20504;-71
2022/07/27 03:31:26;;;;;;;38.27;36.47;;;19.70;69.10;;;;;;4968064;28;20579;-68
2022/07/27 03:33:53;;;;;;;47.97;45.83;;;19.70;69.10;;;;;;4966741;28;20576;-68
2022/07/27 03:36:20;;;;;;;36.77;35.07;;;19.70;69.00;;;;;;4977867;28;20460;-70
2022/07/27 03:38:47;;;;;;;33.43;31.87;;;19.60;69.40;;;;;;4974882;28;21052;-70
2022/07/27 03:41:15;;;;;;;36.80;34.90;;;19.40;70.10;;;;;;4975398;28;20540;-70
2022/07/27 03:43:42;;;;;;;42.07;40.13;;;19.40;70.20;;;;;;4973435;28;20460;-70
2022/07/27 03:46:11;;;;;;;52.73;50.23;;;19.40;70.40;;;;;;4972456;28;20550;-69
2022/07/27 03:48:38;;;;;;;46.77;44.57;;;19.40;70.60;;;;;;4975090;28;20488;-70
2022/07/27 03:51:05;;;;;;;32.83;31.23;;;19.40;70.80;;;;;;4975360;28;20472;-70
2022/07/27 03:53:32;;;;;;;51.50;49.10;;;19.30;70.60;;;;;;4975029;28;20837;-70
2022/07/27 03:55:59;;;;;;;38.07;36.27;;;19.40;70.60;;;;;;4977575;28;20466;-70
2022/07/27 03:58:27;;;;;;;41.17;39.27;;;19.40;70.70;;;;;;4973625;28;20470;-70
2022/07/27 04:00:54;;;;;;;34.50;32.87;;;19.50;70.50;;;;;;4975324;28;20553;-70
2022/07/27 04:03:21;;;;;;;61.57;58.47;;;19.50;70.50;;;;;;4973671;28;20899;-70
2022/07/27 04:05:48;;;;;;;33.10;31.50;;;19.50;70.50;;;;;;4974776;28;20536;-69
2022/07/27 04:08:16;;;;;;;33.37;31.77;;;19.50;70.50;;;;;;4973931;28;20473;-70
2022/07/27 04:10:44;;;;;;;32.93;31.43;;;19.50;70.50;;;;;;4976393;28;20486;-70
2022/07/27 04:13:11;;;;;;;32.03;30.47;;;19.60;70.40;;;;;;4970604;28;20472;-70
2022/07/27 04:15:40;;;;;;;53.13;50.70;;;19.60;70.40;;;;;;4974385;28;21010;-70
2022/07/27 04:18:07;;;;;;;39.73;37.73;;;19.60;70.30;;;;;;4972174;28;20552;-72
2022/07/27 04:20:33;;;;;;;34.50;32.70;;;19.60;70.40;;;;;;4974255;28;21040;-70
2022/07/27 04:23:00;;;;;;;31.23;29.60;;;19.60;70.30;;;;;;4973856;28;21123;-70
2022/07/27 04:25:27;;;;;;;61.73;58.83;;;19.60;70.50;;;;;;4972877;28;20548;-70
2022/07/27 04:27:54;;;;;;;43.67;41.57;;;19.60;70.40;;;;;;4977679;28;20491;-70
2022/07/27 04:30:22;;;;;;;36.73;34.97;;;19.70;70.40;;;;;;4973919;28;20873;-70
2022/07/27 04:32:50;;;;;;;65.40;61.50;;;19.80;70.20;;;;;;4976781;28;21027;-70
2022/07/27 04:35:17;;;;;;;37.27;35.37;;;19.80;70.10;;;;;;4974178;28;20483;-70
2022/07/27 04:37:44;;;;;;;56.93;54.23;;;19.70;70.50;;;;;;4974936;28;20470;-69
2022/07/27 04:40:12;;;;;;;34.07;32.37;;;19.70;70.70;;;;;;4972702;28;20712;-70
2022/07/27 04:42:39;;;;;;;34.70;32.87;;;19.70;70.50;;;;;;4978441;28;20497;-68
2022/07/27 04:45:07;;;;;;;52.13;49.67;;;19.80;70.60;;;;;;4974148;28;20650;-70
2022/07/27 04:47:34;;;;;;;40.37;38.57;;;19.80;70.60;;;;;;4973254;28;20554;-70
2022/07/27 04:50:02;;;;;;;31.43;29.93;;;19.90;70.30;;;;;;4971478;28;21018;-70
2022/07/27 04:52:29;;;;;;;35.67;33.80;;;19.80;70.40;;;;;;4962042;28;20456;-72
2022/07/27 04:54:56;;;;;;;33.20;31.60;;;19.70;71.10;;;;;;4963661;28;20550;-71
2022/07/27 04:57:23;;;;;;;32.07;30.33;;;19.70;70.90;;;;;;4972008;28;20503;-73
2022/07/27 04:59:50;;;;;;;35.63;33.83;;;19.70;70.90;;;;;;4973190;28;20507;-74
2022/07/27 05:02:17;;;;;;;39.37;37.57;;;19.90;70.60;;;;;;4971892;28;20893;-77
2022/07/27 05:04:44;;;;;;;42.13;40.00;;;19.90;70.40;;;;;;4968671;28;20527;-74
2022/07/27 05:07:13;;;;;;;35.37;33.87;;;19.80;70.60;;;;;;4970067;28;20456;-71
2022/07/27 05:09:40;;;;;;;35.83;34.23;;;19.90;70.20;;;;;;4967311;28;20579;-72
2022/07/27 05:12:07;;;;;;;30.77;29.23;;;20.00;69.90;;;;;;4970232;28;20511;-70
2022/07/27 05:14:34;;;;;;;57.03;54.13;;;19.90;70.30;;;;;;4972436;28;20520;-69
2022/07/27 05:17:01;;;;;;;37.27;35.37;;;20.00;70.20;;;;;;4971603;28;20970;-69
2022/07/27 05:19:30;;;;;;;49.60;47.30;;;19.90;70.40;;;;;;4968821;28;20540;-70
2022/07/27 05:21:57;;;;;;;31.17;29.70;;;19.90;70.40;;;;;;4970028;28;20547;-72
2022/07/27 05:24:26;;;;;;;31.93;30.43;;;19.90;70.50;;;;;;4969233;28;20457;-68
2022/07/27 05:26:53;;;;;;;35.83;34.03;;;19.90;70.70;;;;;;4969475;28;20522;-68
2022/07/27 05:29:20;;;;;;;35.13;33.23;;;19.80;71.10;;;;;;4970370;28;20480;-68
2022/07/27 05:31:46;;;;;;;42.90;40.47;;;19.70;71.40;;;;;;4969929;28;20478;-68
2022/07/27 05:34:13;;;;;;;37.00;35.20;;;19.70;71.40;;;;;;4966330;28;20538;-68
2022/07/27 05:36:40;;;;;;;36.40;34.60;;;19.80;71.00;;;;;;4965842;28;20956;-69
2022/07/27 05:39:07;;;;;;;34.47;32.97;;;19.90;70.60;;;;;;4966913;28;20572;-68
2022/07/27 05:41:35;;;;;;;36.50;34.63;;;19.80;71.00;;;;;;4969552;28;20962;-68
2022/07/27 05:44:02;;;;;;;34.23;32.53;;;19.70;71.20;;;;;;4969786;28;20466;-71
2022/07/27 05:46:32;;;;;;;53.53;50.83;;;19.60;71.70;;;;;;4971483;28;20552;-71
2022/07/27 05:48:59;;;;;;;41.47;39.63;;;19.70;71.40;;;;;;4968062;28;20480;-70
2022/07/27 05:51:25;;;;;;;33.10;31.50;;;19.60;71.80;;;;;;4967830;28;20530;-70
2022/07/27 05:53:52;;;;;;;52.30;49.90;;;19.60;71.90;;;;;;4968926;28;20554;-70
2022/07/27 05:56:20;;;;;;;38.20;36.40;;;19.60;71.90;;;;;;4968929;28;20477;-70
2022/07/27 05:58:48;;;;;;;53.97;51.30;;;19.60;72.00;;;;;;4961335;28;20918;-70
2022/07/27 06:01:15;;;;;;;41.23;39.20;;;19.60;72.10;;;;;;4965300;28;22438;-70
2022/07/27 06:03:42;;;;;;;41.73;39.90;;;19.60;72.30;;;;;;4966487;28;20554;-68
2022/07/27 06:08:54;;;;;;;36.73;34.97;;;19.70;72.00;;;;;;4969000;28;20622;-68
2022/07/27 06:11:21;;;;;;;32.90;31.30;;;20.00;71.10;;;;;;4967074;28;20469;-68
2022/07/27 06:13:49;;;;;;;43.60;41.53;;;20.10;70.60;;;;;;4968851;28;20460;-68
2022/07/27 06:16:16;;;;;;;34.97;33.30;;;20.10;70.60;;;;;;4965278;28;20477;-68
2022/07/27 06:18:43;;;;;;;46.80;44.37;;;20.20;70.20;;;;;;4967905;28;20579;-68
2022/07/27 06:21:10;;;;;;;37.57;35.70;;;20.30;70.10;;;;;;4967180;28;20485;-68
2022/07/27 06:23:37;;;;;;;34.93;33.23;;;20.30;70.10;;;;;;4963060;28;20462;-68
2022/07/27 06:26:04;;;;;;;33.20;31.40;;;20.50;69.70;;;;;;4960782;28;20460;-68
2022/07/27 06:28:32;;;;;;;37.00;35.30;;;20.60;69.00;;;;;;4959771;28;20459;-68
2022/07/27 06:31:00;;;;;;;34.20;32.60;;;20.70;68.50;;;;;;4964826;28;20588;-70
2022/07/27 06:33:27;;;;;;;33.83;32.23;;;20.80;68.40;;;;;;4967984;28;20542;-70
2022/07/27 06:35:55;;;;;;;33.20;31.60;;;20.80;68.40;;;;;;4971755;28;20651;-70
2022/07/27 06:38:23;;;;;;;42.33;40.10;;;20.90;68.20;;;;;;4966939;28;20465;-72
2022/07/27 06:40:52;;;;;;;34.40;32.70;;;20.90;68.00;;;;;;4963493;28;20471;-71
2022/07/27 06:43:20;;;;;;;54.97;52.37;;;21.10;67.90;;;;;;4961260;28;20489;-70
2022/07/27 06:45:47;;;;;;;46.83;44.43;;;21.30;67.00;;;;;;4968349;28;20526;-70
2022/07/27 06:48:16;;;;;;;32.50;31.03;;;21.50;66.70;;;;;;4966156;28;20554;-70
2022/07/27 06:50:43;;;;;;;39.77;38.00;;;21.50;66.50;;;;;;4969422;28;20950;-70
2022/07/27 06:53:10;;;;;;;35.93;34.30;;;21.70;65.90;;;;;;4965718;28;20535;-70
2022/07/27 06:55:37;;;;;;;50.17;47.63;;;21.70;65.90;;;;;;4966092;28;20476;-68
2022/07/27 06:58:04;;;;;;;42.33;40.13;;;21.70;66.10;;;;;;4968908;28;20551;-68
2022/07/27 07:00:31;;;;;;;39.07;36.90;;;21.80;65.60;;;;;;4970595;28;20580;-68
2022/07/27 07:03:00;;;;;;;42.20;40.00;;;21.80;65.70;;;;;;4968790;28;20828;-68
2022/07/27 07:05:29;;;;;;;42.27;40.37;;;21.90;65.40;;;;;;4963111;28;20559;-68
2022/07/27 07:07:57;;;;;;;34.23;32.70;;;21.90;65.40;;;;;;4968612;28;20557;-68
2022/07/27 07:10:25;;;;;;;33.57;31.97;;;21.90;65.20;;;;;;4967944;28;20570;-69
2022/07/27 07:12:54;;;;;;;45.43;43.07;;;22.00;65.40;;;;;;4967822;28;20589;-68
2022/07/27 07:15:22;;;;;;;39.33;37.53;;;22.20;64.80;;;;;;4967299;28;20481;-68
2022/07/27 07:17:49;;;;;;;35.83;34.33;;;22.40;63.90;;;;;;4970201;28;20481;-68
2022/07/27 07:20:16;;;;;;;52.87;50.03;;;22.60;63.80;;;;;;4966953;28;20471;-68
2022/07/27 07:22:45;;;;;;;39.97;38.17;;;22.80;62.90;;;;;;4967621;28;20551;-69
2022/07/27 07:25:12;;;;;;;34.20;32.63;;;23.00;62.40;;;;;;4969851;28;21026;-69
2022/07/27 07:27:39;;;;;;;45.10;43.00;;;22.80;62.90;;;;;;4970687;28;20550;-69
2022/07/27 07:30:06;;;;;;;56.07;53.37;;;22.90;62.70;;;;;;4968085;28;20992;-70
2022/07/27 07:32:33;;;;;;;50.63;48.13;;;23.10;62.10;;;;;;4958733;28;20550;-70
2022/07/27 07:35:02;;;;;;;50.33;47.83;;;23.00;61.90;;;;;;4966585;28;20482;-69
2022/07/27 07:37:32;;;;;;;38.30;36.33;;;23.10;61.80;;;;;;4971604;28;20486;-70
2022/07/27 07:40:01;;;;;;;55.53;52.80;;;23.10;61.90;;;;;;4973866;28;20582;-69
2022/07/27 07:42:28;;;;;;;50.87;48.23;;;23.30;61.30;;;;;;4971805;28;20478;-70
2022/07/27 07:44:55;;;;;;;50.67;48.17;;;23.60;60.80;;;;;;4971350;28;20467;-70
2022/07/27 07:47:22;;;;;;;46.17;44.03;;;23.70;60.50;;;;;;4972226;28;20482;-69
2022/07/27 07:49:52;;;;;;;45.73;43.73;;;23.50;61.00;;;;;;4970250;28;20483;-70
2022/07/27 07:52:19;;;;;;;46.00;43.93;;;23.50;61.10;;;;;;4970956;28;20558;-71
2022/07/27 07:54:46;;;;;;;39.37;37.47;;;23.50;60.90;;;;;;4970495;28;21613;-71
2022/07/27 07:57:14;;;;;;;48.20;45.83;;;23.30;61.00;;;;;;4971035;28;20502;-71
2022/07/27 07:59:41;;;;;;;55.67;52.90;;;23.00;62.10;;;;;;4968820;28;20574;-70
2022/07/27 08:02:08;;;;;;;50.13;47.80;;;22.90;62.80;;;;;;4970059;28;20459;-69
2022/07/27 08:04:35;;;;;;;55.20;52.63;;;23.10;62.40;;;;;;4968450;28;20451;-69
2022/07/27 08:07:04;;;;;;;56.77;54.07;;;23.10;62.20;;;;;;4969055;28;20495;-69
2022/07/27 08:09:31;;;;;;;42.60;40.70;;;22.90;62.70;;;;;;4971104;28;20573;-70
2022/07/27 08:11:58;;;;;;;41.03;39.00;;;23.10;62.50;;;;;;4971016;28;20554;-71
2022/07/27 08:14:27;;;;;;;51.63;49.23;;;23.40;61.80;;;;;;4970031;28;20463;-70
2022/07/27 08:16:57;;;;;;;50.57;48.27;;;23.50;61.20;;;;;;4968545;28;20529;-70
2022/07/27 08:19:24;;;;;;;42.67;40.67;;;23.80;60.30;;;;;;4970082;28;21048;-71
2022/07/27 08:21:51;;;;;;;43.90;41.83;;;23.80;60.40;;;;;;4972207;28;20876;-71
2022/07/27 08:24:18;;;;;;;42.63;40.63;;;23.90;60.40;;;;;;4972975;28;20570;-70
2022/07/27 08:26:45;;;;;;;41.43;39.53;;;23.80;60.30;;;;;;4974949;28;20491;-71
2022/07/27 08:29:12;;;;;;;49.30;46.90;;;24.00;60.10;;;;;;4972020;28;20504;-69
2022/07/27 08:31:41;;;;;;;57.77;54.97;;;24.50;58.70;;;;;;4972045;28;20456;-72
2022/07/27 08:34:07;;;;;;;52.83;50.23;;;24.80;57.80;;;;;;4963282;28;20492;-71
2022/07/27 08:36:34;;;;;;;50.27;47.93;;;24.30;58.40;;;;;;4968100;28;20497;-69
2022/07/27 08:39:07;;;;;;;37.00;35.20;;;24.00;59.50;;;;;;4973407;28;20569;-70
2022/07/27 08:41:38;;;;;;;57.07;54.57;;;24.10;59.00;;;;;;4972412;28;20473;-70
2022/07/27 08:44:07;;;;;;;52.23;49.80;;;23.90;59.80;;;;;;4972271;28;20466;-70
2022/07/27 08:46:35;;;;;;;40.37;38.57;;;23.90;60.00;;;;;;4968768;28;20475;-70
2022/07/27 08:49:04;;;;;;;43.90;41.80;;;24.30;59.60;;;;;;4975280;28;20577;-70
2022/07/27 08:51:31;;;;;;;42.27;39.97;;;24.50;58.90;;;;;;4970548;28;20460;-70
2022/07/27 08:53:59;;;;;;;39.10;37.00;;;24.40;59.10;;;;;;4972889;28;21003;-70
2022/07/27 08:56:26;;;;;;;38.07;36.17;;;24.50;59.00;;;;;;4972407;28;20486;-70
2022/07/27 08:58:53;;;;;;;38.53;36.43;;;24.60;58.70;;;;;;4971949;28;20486;-70
2022/07/27 09:01:20;;;;;;;45.33;43.13;;;24.60;58.20;;;;;;4971768;28;21024;-70
2022/07/27 09:03:47;;;;;;;54.57;51.77;;;24.70;57.80;;;;;;4971602;28;20479;-69
2022/07/27 09:06:43;;;;;;;45.00;42.90;;;24.60;57.80;;;;;;4972525;28;20463;-71
2022/07/27 09:09:10;;;;;;;39.60;37.63;;;24.40;58.40;;;;;;4964144;28;20557;-69
2022/07/27 09:11:37;;;;;;;33.83;32.27;;;24.60;57.80;;;;;;4971632;28;20470;-69
2022/07/27 09:14:06;;;;;;;40.30;38.47;;;24.60;58.10;;;;;;4969356;28;20525;-69
2022/07/27 09:16:34;;;;;;;42.93;40.93;;;24.60;58.30;;;;;;4970518;28;20571;-69
2022/07/27 09:19:03;;;;;;;37.47;35.67;;;24.40;58.80;;;;;;4972383;28;20493;-69
2022/07/27 09:21:32;;;;;;;34.53;32.73;;;24.50;58.20;;;;;;4972146;28;20938;-70
2022/07/27 09:24:07;;;;;;;38.00;36.20;;;24.40;58.80;;;;;;4967993;28;20470;-70
2022/07/27 09:26:35;;;;;;;35.83;34.00;;;24.00;59.90;;;;;;4970803;28;21035;-69
2022/07/27 09:29:05;;;;;;;44.47;42.37;;;24.00;60.00;;;;;;4971850;28;20562;-70
2022/07/27 09:31:35;;;;;;;45.07;42.90;;;24.00;59.50;;;;;;4971280;28;20555;-70
2022/07/27 09:34:03;;;;;;;48.90;46.50;;;24.10;59.60;;;;;;4968592;28;20458;-69
2022/07/27 09:36:31;;;;;;;43.10;41.00;;;24.20;58.80;;;;;;4971036;28;20490;-68
2022/07/27 09:39:01;;;;;;;32.33;30.73;;;24.10;59.30;;;;;;4960164;28;20605;-69
2022/07/27 09:41:39;;;;;;;34.13;32.30;;;24.20;59.20;;;;;;4971166;28;20561;-69
2022/07/27 09:44:06;;;;;;;47.27;45.07;;;24.30;57.90;;;;;;4971453;28;20545;-70
2022/07/27 09:46:35;;;;;;;39.57;37.53;;;24.00;58.20;;;;;;4971591;28;20455;-69
2022/07/27 09:49:03;;;;;;;46.17;44.07;;;24.00;58.80;;;;;;4970465;28;20590;-69
2022/07/27 09:51:32;;;;;;;47.00;44.83;;;23.90;59.70;;;;;;4965153;28;20467;-69
2022/07/27 09:54:07;;;;;;;37.60;35.73;;;24.00;59.90;;;;;;4969595;28;20550;-69
2022/07/27 09:56:34;;;;;;;41.23;39.30;;;24.00;60.10;;;;;;4971380;28;20501;-68
2022/07/27 09:59:03;;;;;;;37.37;35.67;;;23.90;60.20;;;;;;4971387;28;20475;-68
2022/07/27 10:01:33;;;;;;;56.40;53.70;;;23.60;60.30;;;;;;4970501;28;20474;-68
2022/07/27 10:04:02;;;;;;;55.20;52.70;;;23.60;60.00;;;;;;4970816;28;20960;-67
2022/07/27 10:06:31;;;;;;;44.00;41.93;;;23.70;60.40;;;;;;4969886;28;20498;-69
2022/07/27 10:08:59;;;;;;;47.47;45.07;;;23.70;60.40;;;;;;4969617;28;20577;-69
2022/07/27 10:11:27;;;;;;;39.10;37.30;;;23.80;60.30;;;;;;4970865;28;20456;-67
2022/07/27 10:13:56;;;;;;;36.33;34.73;;;24.00;59.20;;;;;;4970986;28;20585;-67
2022/07/27 10:16:25;;;;;;;35.43;33.83;;;23.90;59.40;;;;;;4973699;28;21018;-67
2022/07/27 10:19:02;;;;;;;44.20;41.90;;;23.80;60.00;;;;;;4961456;28;20567;-67
2022/07/27 10:21:31;;;;;;;45.57;43.03;;;24.00;59.50;;;;;;4963495;28;20558;-68
2022/07/27 10:24:00;;;;;;;48.90;46.70;;;24.30;59.40;;;;;;4966898;28;20545;-68
2022/07/27 10:26:35;;;;;;;34.60;33.00;;;24.50;59.10;;;;;;4970998;28;20466;-68
2022/07/27 10:29:04;;;;;;;39.00;37.10;;;24.80;58.90;;;;;;4967102;28;20564;-68
2022/07/27 10:31:34;;;;;;;45.87;43.57;;;25.10;57.70;;;;;;4964550;28;20479;-68
2022/07/27 10:34:04;;;;;;;51.63;49.03;;;25.50;56.50;;;;;;4961799;28;20510;-68
2022/07/27 10:36:50;;;;;;;47.90;45.50;;;25.50;55.90;;;;;;4968418;28;20483;-68
2022/07/27 10:39:30;;;;;;;38.53;36.47;;;25.30;56.20;;;;;;4963162;28;20490;-70
2022/07/27 10:42:18;;;;;;;34.70;33.10;;;24.90;55.70;;;;;;4967883;28;20510;-71
2022/07/27 10:45:04;;;;;;;47.80;45.50;;;24.80;55.70;;;;;;4964122;28;20507;-70
2022/07/27 10:47:38;;;;;;;42.33;40.33;;;24.70;56.00;;;;;;4968492;28;20554;-70
2022/07/27 10:50:30;;;;;;;34.63;32.90;;;24.90;54.90;;;;;;4969349;28;21179;-70
2022/07/27 10:53:04;;;;;;;33.97;32.47;;;25.10;55.30;;;;;;4957639;28;20473;-71
2022/07/27 10:55:45;;;;;;;35.10;33.30;;;25.30;55.40;;;;;;4965906;28;20552;-68
2022/07/27 10:58:46;;;;;;;40.43;38.33;;;25.40;55.20;;;;;;4964846;28;20547;-68
2022/07/27 11:01:17;;;;;;;43.27;41.07;;;25.40;54.50;;;;;;4968316;28;20494;-68
2022/07/27 11:03:58;;;;;;;40.33;38.43;;;25.30;54.80;;;;;;4966219;28;20549;-68
2022/07/27 11:06:29;;;;;;;48.03;45.47;;;25.70;54.60;;;;;;4962068;28;20805;-68
2022/07/27 11:08:59;;;;;;;48.47;46.17;;;26.30;53.50;;;;;;4965403;28;20544;-69
2022/07/27 11:11:27;;;;;;;37.40;35.30;;;26.60;52.10;;;;;;4969364;28;20531;-68
2022/07/27 11:13:57;;;;;;;43.00;40.90;;;26.50;51.80;;;;;;4966271;28;20467;-70
2022/07/27 11:16:27;;;;;;;31.87;30.47;;;26.20;52.50;;;;;;4965351;28;20942;-70
2022/07/27 11:19:02;;;;;;;34.70;33.10;;;25.90;51.40;;;;;;4964084;28;20494;-70
2022/07/27 11:21:31;;;;;;;48.60;46.20;;;25.90;51.40;;;;;;4963170;28;20968;-71
2022/07/27 11:24:02;;;;;;;38.97;36.83;;;25.80;52.00;;;;;;4967474;28;20896;-70
2022/07/27 11:26:31;;;;;;;51.13;48.53;;;25.80;53.10;;;;;;4965219;28;20532;-70
2022/07/27 11:28:58;;;;;;;40.30;38.50;;;25.60;52.80;;;;;;4961181;28;20580;-70
2022/07/27 11:31:25;;;;;;;44.67;42.43;;;25.40;53.20;;;;;;4963258;28;20463;-70
2022/07/27 11:33:55;;;;;;;35.70;34.10;;;25.30;53.30;;;;;;4966216;28;20463;-71
2022/07/27 11:36:23;;;;;;;52.50;50.10;;;25.50;52.70;;;;;;4965414;28;20526;-70
2022/07/27 11:38:53;;;;;;;40.60;38.70;;;25.80;52.30;;;;;;4965636;28;20554;-70
2022/07/27 11:41:26;;;;;;;40.23;38.27;;;25.70;52.30;;;;;;4969976;28;20471;-70
2022/07/27 11:43:53;;;;;;;50.13;47.70;;;25.90;51.90;;;;;;4965405;28;21226;-70
2022/07/27 11:46:23;;;;;;;37.60;35.80;;;25.90;51.90;;;;;;4967575;28;20821;-71
2022/07/27 11:48:55;;;;;;;46.67;44.40;;;26.20;50.70;;;;;;4966832;28;20490;-70
2022/07/27 11:51:23;;;;;;;36.60;34.80;;;26.40;50.50;;;;;;4964668;28;20491;-70
2022/07/27 11:53:56;;;;;;;45.20;43.00;;;26.90;48.60;;;;;;4962475;28;21008;-70
2022/07/27 11:56:26;;;;;;;39.53;37.53;;;27.00;47.60;;;;;;4968309;28;20482;-70
2022/07/27 11:59:05;;;;;;;46.60;44.40;;;27.00;47.10;;;;;;4969267;28;20485;-70
2022/07/27 12:01:34;;;;;;;52.13;49.57;;;27.10;48.10;;;;;;4969707;28;20538;-71
2022/07/27 12:04:05;;;;;;;57.40;54.70;;;27.30;47.40;;;;;;4970423;28;20466;-70
2022/07/27 12:06:33;;;;;;;51.33;48.93;;;27.10;48.20;;;;;;4968090;28;20587;-72
2022/07/27 12:09:01;;;;;;;39.97;37.97;;;26.50;49.20;;;;;;4970555;28;20848;-70
2022/07/27 12:11:30;;;;;;;43.97;41.93;;;26.30;49.40;;;;;;4969990;28;20475;-70
2022/07/27 12:13:58;;;;;;;54.80;52.20;;;26.10;50.30;;;;;;4962486;28;20534;-70
2022/07/27 12:16:25;;;;;;;39.93;38.10;;;26.30;49.70;;;;;;4966463;28;20529;-70
2022/07/27 12:18:52;;;;;;;37.70;36.10;;;26.50;49.60;;;;;;4969901;28;20687;-70
2022/07/27 12:21:20;;;;;;;37.73;36.03;;;26.20;49.80;;;;;;4971548;28;20471;-71
2022/07/27 12:23:51;;;;;;;47.30;45.00;;;26.10;50.00;;;;;;4972352;28;20520;-70
2022/07/27 12:26:19;;;;;;;50.37;48.07;;;26.10;50.00;;;;;;4967537;28;21113;-73
2022/07/27 12:29:05;;;;;;;41.47;39.50;;;26.20;49.70;;;;;;4968873;28;21105;-73
2022/07/27 12:31:32;;;;;;;54.33;51.87;;;26.30;49.30;;;;;;4970433;28;20466;-71
2022/07/27 12:34:01;;;;;;;55.30;52.70;;;26.40;49.30;;;;;;4972287;28;20552;-70
2022/07/27 12:36:30;;;;;;;54.70;52.00;;;26.60;48.50;;;;;;4969768;28;20467;-73
2022/07/27 12:38:57;;;;;;;40.27;38.47;;;27.00;46.90;;;;;;4969961;28;20485;-70